Painesville, OH

11:39 AM EDT on September 02, 2014 (GMT -0400)
KOHPAINE5 | Change Station
CLOSE
Current Station
Personal Weather Station
Location: Painesville, OH
Elevation: 630 ft
Nearby Weather Stations

Elev 630 ft 41.74 °N, 81.26 °W | Updated 1 second ago

Overcast
Overcast
74.9 °F
Feels Like 75 °F
N
2.0
Wind Variable Wind from SSW
Gusts 4.0 mph

Today
High -- | Low -- °F
--% Chance of Precip.
Yesterday
High -- | Low -- °F
Precip. -- in
6:51 AM 7:56 PM
First Quarter, 52% visible
Pressure 29.90 in
Visibility 12.0 miles
Clouds Scattered Clouds 2500 ft
Mostly Cloudy 5000 ft
Overcast 12000 ft
Heat Index 75 °F
Dew Point 70 °F
Humidity 84%
Rainfall 0.00 in
Snow Depth Not available.
UV 2 out of 12
Pollen 4.10 out of 12
Ozone Good
PM2.5 Good
Flu Activity Not available.
METAR KCGF 021445Z 27008KT 12SM SCT025 BKN050 OVC120 24/22 A2990

More Conditions Fewer Conditions

Pressure 29.90 in
Visibility 12.0 miles
Clouds Scattered Clouds 2500 ft
Mostly Cloudy 5000 ft
Overcast 12000 ft
Heat Index 75 °F
Dew Point 70 °F
Humidity 84%
Rainfall 0.00 in
Snow Depth Not available.
UV 2 out of 12
Pollen 4.10 out of 12
Ozone Good
PM2.5 Good
Flu Activity Not available.
METAR KCGF 021445Z 27008KT 12SM SCT025 BKN050 OVC120 24/22 A2990

More Conditions Fewer Conditions

10-Day Weather Forecast

Almanac

Astronomy

Sep. 02, 2014 Rise Set
Actual Time 6:51 AM EDT 7:56 PM EDT
Civil Twilight 6:23 AM EDT 8:24 PM EDT
Nautical Twilight 5:49 AM EDT 8:58 PM EDT
Astronomical Twilight 5:13 AM EDT 9:34 PM EDT
Moon 2:40 PM EDT No Moon Set
Length of Visible Light 14h 01m
Length of Day
13h 04m
Tomorrow will be 2m 42s shorter.
First Quarter, 52% of the Moon is Illuminated
Today
First Quarter
Sep 8
Full
Sep 15
Last Quarter
Sep 24
New
Oct 1
First Quarter

Today's Extremes

State Highs State Lows

Community

WunderPhotos

Upload Photos

1,749,700 photos uploaded!

Nearby

Air Quality

  Air Quality AQ Index Pollutant
Yesterday Good
PM10
Yesterday Good
OZONE
Current Good
PM2.5
Current Good
OZONE
Tuesday Moderate
PM2.5
Tuesday Good
OZONE
Wednesday Moderate
PM2.5
Wednesday Good
OZONE
Thursday Moderate
PM2.5
Thursday Good
OZONE

Snow Depth

Station Depth Elevation
No new snow has been reported.

Earthquake Activity

City Distance Mag. Time & Date
No recent earthquake activity has been reported nearby.
Minimum magnitude displayed is 2.5.

Coastal Water Temperatures

Place Temperature
Fairport, OH 73.0 °F
Cleveland, OH 73.0 °F

Nearby Weather Stations